Time;durP1;ratioP1;P1;durP2;ratioP2;P2;SDS_P1;SDS_P2;PMS_P1;PMS_P2;Temp;Humidity;BMP_temperature;BMP_pressure;BME280_temperature;BME280_humidity;BME280_pressure;Samples;Min_cycle;Max_cycle;Signal;HPM_P1;HPM_P2
2022/02/22 00:01:13;;;;;;;8.13;1.88;;;20.00;45.40;;;;;;5065296;28;20051;-68
2022/02/22 00:03:42;;;;;;;7.80;1.33;;;20.00;45.40;;;;;;5066743;28;20070;-67
2022/02/22 00:06:09;;;;;;;3.50;1.30;;;20.00;45.40;;;;;;5066121;28;20033;-68
2022/02/22 00:08:36;;;;;;;7.43;1.08;;;19.90;45.50;;;;;;5065655;28;20095;-68
2022/02/22 00:11:03;;;;;;;9.98;1.35;;;19.90;45.30;;;;;;5065612;28;20051;-68
2022/02/22 00:13:30;;;;;;;7.03;1.50;;;19.90;45.30;;;;;;5066215;28;20036;-68
2022/02/22 00:15:58;;;;;;;4.03;1.15;;;19.90;45.30;;;;;;5066563;28;20032;-68
2022/02/22 00:18:25;;;;;;;7.97;0.90;;;19.90;45.30;;;;;;5066406;28;20051;-67
2022/02/22 00:20:54;;;;;;;10.68;2.10;;;20.00;45.30;;;;;;5065798;28;20044;-67
2022/02/22 00:23:21;;;;;;;8.57;1.15;;;19.90;45.20;;;;;;5060539;28;20037;-66
2022/02/22 00:25:48;;;;;;;7.93;1.40;;;19.90;45.30;;;;;;5059468;28;20037;-66
2022/02/22 00:28:19;;;;;;;8.63;1.42;;;19.90;45.50;;;;;;5058906;28;20397;-66
2022/02/22 00:30:48;;;;;;;5.18;1.20;;;19.90;45.60;;;;;;5066625;28;20041;-65
2022/02/22 00:33:15;;;;;;;7.88;1.20;;;19.90;45.70;;;;;;5062452;28;20044;-66
2022/02/22 00:35:42;;;;;;;2.72;0.63;;;19.90;45.80;;;;;;5059372;28;20040;-65
2022/02/22 00:38:10;;;;;;;8.75;0.88;;;19.90;46.00;;;;;;5058425;28;20070;-65
2022/02/22 00:40:37;;;;;;;4.50;1.33;;;19.90;46.10;;;;;;5041192;28;20059;-67
2022/02/22 00:43:05;;;;;;;10.55;2.42;;;19.90;46.20;;;;;;5060577;28;20535;-66
2022/02/22 00:45:33;;;;;;;4.60;1.27;;;19.90;46.80;;;;;;5061909;28;20051;-66
2022/02/22 00:48:00;;;;;;;9.10;1.95;;;19.90;46.30;;;;;;5041743;28;20417;-66
2022/02/22 00:50:28;;;;;;;4.72;1.20;;;19.90;46.30;;;;;;5065045;28;20041;-66
2022/02/22 00:52:56;;;;;;;6.30;1.33;;;19.90;46.40;;;;;;5060167;28;20036;-66
2022/02/22 00:55:25;;;;;;;6.70;1.85;;;19.90;46.50;;;;;;5060795;28;20068;-66
2022/02/22 00:57:52;;;;;;;8.88;1.10;;;19.90;46.50;;;;;;5059052;28;20486;-66
2022/02/22 01:00:20;;;;;;;7.60;1.27;;;19.90;46.50;;;;;;5060294;28;20029;-64
2022/02/22 01:02:47;;;;;;;6.65;1.48;;;19.90;46.50;;;;;;5058526;28;20041;-66
2022/02/22 01:05:15;;;;;;;5.05;1.75;;;19.90;46.50;;;;;;5060582;28;20786;-66
2022/02/22 01:07:42;;;;;;;11.13;1.92;;;20.00;46.60;;;;;;5065026;28;20091;-64
2022/02/22 01:10:10;;;;;;;7.13;1.05;;;20.00;46.70;;;;;;5065981;28;20066;-66
2022/02/22 01:12:38;;;;;;;8.05;1.30;;;19.90;46.60;;;;;;5067203;28;20033;-66
2022/02/22 01:15:07;;;;;;;6.70;1.48;;;19.90;46.60;;;;;;5065481;28;20047;-68
2022/02/22 01:17:35;;;;;;;7.05;2.28;;;20.00;46.70;;;;;;5063093;28;20045;-63
2022/02/22 01:20:05;;;;;;;7.78;1.45;;;20.00;46.70;;;;;;5060364;28;20047;-63
2022/02/22 01:22:33;;;;;;;6.80;1.58;;;20.00;46.70;;;;;;5062483;28;20040;-65
2022/02/22 01:25:00;;;;;;;6.20;1.13;;;19.90;46.60;;;;;;5065312;28;20040;-65
2022/02/22 01:27:27;;;;;;;6.00;0.98;;;19.90;46.60;;;;;;5066891;28;20053;-66
2022/02/22 01:29:56;;;;;;;7.50;0.95;;;19.90;46.60;;;;;;5065453;28;20032;-65
2022/02/22 01:32:23;;;;;;;3.92;1.10;;;20.00;46.70;;;;;;5069119;28;20071;-65
2022/02/22 01:34:50;;;;;;;7.68;1.83;;;20.00;46.70;;;;;;5068924;28;20040;-66
2022/02/22 01:37:17;;;;;;;5.47;1.20;;;20.00;46.70;;;;;;5068024;28;20489;-65
2022/02/22 01:39:44;;;;;;;8.50;1.88;;;19.90;46.60;;;;;;5052170;28;20044;-65
2022/02/22 01:42:12;;;;;;;8.27;1.00;;;20.00;46.70;;;;;;5068354;28;20499;-65
2022/02/22 01:44:39;;;;;;;4.90;1.17;;;19.90;46.60;;;;;;5068804;28;20040;-66
2022/02/22 01:47:07;;;;;;;4.82;1.25;;;20.00;46.70;;;;;;5068764;28;20150;-65
2022/02/22 01:49:35;;;;;;;9.25;1.48;;;19.90;46.60;;;;;;5068534;28;20444;-65
2022/02/22 01:52:03;;;;;;;7.18;2.00;;;19.90;46.60;;;;;;5065977;28;20052;-65
2022/02/22 01:54:31;;;;;;;6.68;1.55;;;19.90;46.60;;;;;;5051973;28;20819;-68
2022/02/22 01:56:58;;;;;;;5.85;0.90;;;19.90;46.60;;;;;;5068443;28;20041;-65
2022/02/22 01:59:25;;;;;;;9.68;1.95;;;19.90;46.60;;;;;;5068407;28;20588;-65
2022/02/22 02:01:53;;;;;;;8.82;1.67;;;19.90;46.50;;;;;;5068250;28;20049;-65
2022/02/22 02:04:21;;;;;;;6.03;0.68;;;19.90;46.60;;;;;;5068299;28;20415;-64
2022/02/22 02:06:48;;;;;;;6.10;1.00;;;19.90;46.60;;;;;;5070559;28;20048;-65
2022/02/22 02:09:15;;;;;;;4.72;1.15;;;20.00;46.60;;;;;;5068077;28;20048;-65
2022/02/22 02:11:44;;;;;;;6.88;0.93;;;19.90;46.50;;;;;;5068316;28;20040;-66
2022/02/22 02:14:12;;;;;;;6.80;2.80;;;19.90;46.50;;;;;;5068574;28;20078;-65
2022/02/22 02:16:39;;;;;;;6.68;0.95;;;19.90;46.50;;;;;;5068756;28;20048;-65
2022/02/22 02:19:06;;;;;;;8.82;2.58;;;19.90;46.50;;;;;;5068260;28;20045;-64
2022/02/22 02:21:36;;;;;;;4.22;1.08;;;19.90;46.60;;;;;;5050123;28;20049;-65
2022/02/22 02:24:12;;;;;;;7.57;1.73;;;19.90;46.60;;;;;;5067697;28;20124;-65
2022/02/22 02:26:39;;;;;;;7.72;1.38;;;19.90;46.60;;;;;;5067747;28;20044;-64
2022/02/22 02:29:08;;;;;;;8.02;1.40;;;19.90;46.60;;;;;;5067827;28;20505;-63
2022/02/22 02:31:36;;;;;;;9.48;1.63;;;19.90;46.60;;;;;;5068127;28;20041;-64
2022/02/22 02:34:05;;;;;;;4.00;1.27;;;19.90;46.60;;;;;;5067651;28;20041;-65
2022/02/22 02:36:33;;;;;;;10.60;1.73;;;19.90;46.60;;;;;;5067174;28;20178;-67
2022/02/22 02:39:00;;;;;;;5.40;1.35;;;19.90;46.60;;;;;;5067717;28;20036;-67
2022/02/22 02:41:29;;;;;;;8.05;1.83;;;19.80;46.50;;;;;;5067427;28;20757;-67
2022/02/22 02:44:01;;;;;;;10.55;1.38;;;19.90;46.60;;;;;;5067170;28;20130;-66
2022/02/22 02:46:29;;;;;;;10.43;1.55;;;19.80;46.70;;;;;;5066595;28;20040;-67
2022/02/22 02:48:56;;;;;;;7.03;1.33;;;19.80;46.70;;;;;;5050100;28;20044;-66
2022/02/22 02:51:23;;;;;;;7.07;1.25;;;19.80;46.70;;;;;;5068696;28;20056;-67
2022/02/22 02:53:51;;;;;;;7.63;2.13;;;19.80;46.80;;;;;;5067441;28;20059;-66
2022/02/22 02:56:22;;;;;;;9.85;1.77;;;19.80;46.80;;;;;;5067574;28;20546;-66
2022/02/22 02:58:52;;;;;;;11.98;2.47;;;19.80;46.80;;;;;;5067444;28;20661;-66
2022/02/22 03:01:20;;;;;;;7.38;1.40;;;19.80;46.80;;;;;;5067408;28;20052;-66
2022/02/22 03:03:47;;;;;;;7.40;1.10;;;19.80;46.80;;;;;;5068866;28;20047;-66
2022/02/22 03:06:14;;;;;;;6.97;1.55;;;19.80;46.80;;;;;;5067037;28;20429;-66
2022/02/22 03:08:41;;;;;;;8.32;1.83;;;19.80;46.80;;;;;;5067041;28;20040;-66
2022/02/22 03:11:08;;;;;;;6.65;2.05;;;19.80;46.90;;;;;;5067038;28;20062;-66
2022/02/22 03:13:35;;;;;;;6.68;1.45;;;19.80;46.90;;;;;;5067259;28;20040;-65
2022/02/22 03:16:04;;;;;;;11.13;1.38;;;19.80;46.90;;;;;;5067340;28;20051;-64
2022/02/22 03:18:32;;;;;;;8.38;1.50;;;19.80;46.90;;;;;;5068523;28;20041;-65
2022/02/22 03:20:59;;;;;;;8.73;1.63;;;19.80;47.00;;;;;;5067087;28;20090;-65
2022/02/22 03:23:26;;;;;;;8.70;2.40;;;19.80;47.00;;;;;;5066800;28;20139;-65
2022/02/22 03:25:53;;;;;;;5.57;1.13;;;19.80;47.00;;;;;;5066556;28;20831;-65
2022/02/22 03:28:20;;;;;;;7.25;1.48;;;19.80;47.50;;;;;;5066698;28;20040;-65
2022/02/22 03:30:48;;;;;;;5.10;1.33;;;19.80;47.10;;;;;;5068262;28;20506;-66
2022/02/22 03:33:18;;;;;;;7.22;2.63;;;19.80;47.10;;;;;;5066398;28;20080;-66
2022/02/22 03:35:45;;;;;;;5.60;1.15;;;19.80;47.10;;;;;;5066268;28;20036;-66
2022/02/22 03:38:12;;;;;;;6.95;2.13;;;19.80;47.20;;;;;;5066439;28;20054;-66
2022/02/22 03:40:39;;;;;;;9.95;1.55;;;19.70;47.20;;;;;;5064546;28;20049;-66
2022/02/22 03:43:06;;;;;;;10.15;1.40;;;19.80;47.20;;;;;;5066969;28;20048;-66
2022/02/22 03:45:34;;;;;;;8.50;1.83;;;19.80;47.30;;;;;;5065913;28;20040;-68
2022/02/22 03:48:01;;;;;;;9.40;2.08;;;19.80;47.40;;;;;;5066904;28;20041;-67
2022/02/22 03:50:30;;;;;;;6.90;1.40;;;19.80;47.50;;;;;;5066565;28;20624;-68
2022/02/22 03:52:57;;;;;;;6.50;1.55;;;19.70;47.50;;;;;;5061922;28;20497;-66
2022/02/22 03:55:24;;;;;;;5.25;1.33;;;19.80;47.50;;;;;;5066264;28;20052;-66
2022/02/22 03:57:52;;;;;;;8.80;2.17;;;19.70;47.50;;;;;;5068086;28;20517;-67
2022/02/22 04:00:22;;;;;;;7.22;1.67;;;19.70;47.50;;;;;;5066013;28;20045;-65
2022/02/22 04:02:49;;;;;;;9.07;1.42;;;19.70;47.60;;;;;;5066106;28;20037;-66
2022/02/22 04:05:18;;;;;;;8.38;1.30;;;19.70;47.60;;;;;;5065898;28;20124;-66
2022/02/22 04:07:46;;;;;;;8.10;2.20;;;19.70;47.60;;;;;;5066007;28;20040;-66
2022/02/22 04:10:14;;;;;;;11.52;1.90;;;19.70;47.60;;;;;;5066265;28;20127;-67
2022/02/22 04:12:42;;;;;;;7.95;1.38;;;19.70;47.60;;;;;;5067803;28;20051;-66
2022/02/22 04:15:10;;;;;;;6.80;1.83;;;19.70;47.60;;;;;;5065689;28;20063;-66
2022/02/22 04:17:38;;;;;;;6.78;1.35;;;19.70;47.60;;;;;;5066069;28;20071;-66
2022/02/22 04:20:06;;;;;;;10.13;1.42;;;19.70;47.60;;;;;;5047998;28;20048;-66
2022/02/22 04:22:33;;;;;;;6.95;1.63;;;19.70;47.60;;;;;;5065985;28;20036;-66
2022/02/22 04:25:02;;;;;;;7.95;1.40;;;19.70;47.60;;;;;;5065788;28;20044;-66
2022/02/22 04:27:29;;;;;;;10.55;1.55;;;19.70;47.50;;;;;;5067287;28;20051;-66
2022/02/22 04:29:56;;;;;;;8.00;1.05;;;19.70;47.50;;;;;;5065286;28;20070;-66
2022/02/22 04:32:23;;;;;;;9.95;1.42;;;19.70;47.50;;;;;;5065602;28;20033;-66
2022/02/22 04:34:50;;;;;;;8.63;1.40;;;19.70;47.60;;;;;;5065653;28;20040;-66
2022/02/22 04:37:17;;;;;;;5.80;1.13;;;19.70;47.50;;;;;;5065843;28;20047;-66
2022/02/22 04:39:45;;;;;;;5.00;1.83;;;19.70;47.50;;;;;;5067239;28;20143;-66
2022/02/22 04:42:14;;;;;;;6.93;2.15;;;19.70;47.60;;;;;;5065356;28;20029;-66
2022/02/22 04:44:41;;;;;;;10.50;1.40;;;19.70;47.50;;;;;;5047158;28;20055;-66
2022/02/22 04:47:08;;;;;;;8.05;1.70;;;19.70;47.50;;;;;;5064936;28;20040;-67
2022/02/22 04:49:36;;;;;;;6.75;0.85;;;19.70;47.50;;;;;;5065811;28;20032;-66
2022/02/22 04:52:05;;;;;;;10.60;1.27;;;19.70;47.50;;;;;;5061027;28;20036;-66
2022/02/22 04:54:32;;;;;;;7.22;1.02;;;19.70;47.50;;;;;;5066930;28;20056;-65
2022/02/22 04:56:59;;;;;;;9.60;1.55;;;19.70;47.50;;;;;;5065685;28;20043;-64
2022/02/22 04:59:27;;;;;;;5.65;1.98;;;19.70;47.40;;;;;;5065175;28;20050;-66
2022/02/22 05:01:54;;;;;;;5.82;1.25;;;19.70;48.00;;;;;;5065534;28;20394;-65
2022/02/22 05:04:21;;;;;;;7.90;1.20;;;19.70;47.40;;;;;;5061296;28;20041;-66
2022/02/22 05:06:48;;;;;;;10.60;1.80;;;19.70;47.40;;;;;;5071448;28;20041;-66
2022/02/22 05:09:16;;;;;;;9.38;2.60;;;19.70;47.40;;;;;;5069375;28;20051;-66
2022/02/22 05:11:43;;;;;;;8.45;1.42;;;19.70;47.40;;;;;;5069534;28;20409;-66
2022/02/22 05:14:10;;;;;;;9.50;1.83;;;19.70;47.40;;;;;;5069091;28;20041;-66
2022/02/22 05:16:39;;;;;;;6.20;1.27;;;19.70;47.30;;;;;;5068190;28;20040;-66
2022/02/22 05:19:07;;;;;;;5.03;0.88;;;19.70;47.30;;;;;;5067903;28;20040;-66
2022/02/22 05:21:35;;;;;;;8.02;1.73;;;19.70;47.30;;;;;;5069333;28;20039;-66
2022/02/22 05:24:02;;;;;;;9.20;2.78;;;19.70;47.30;;;;;;5069389;28;20115;-67
2022/02/22 05:26:29;;;;;;;4.68;1.27;;;19.70;47.30;;;;;;5060385;28;20581;-65
2022/02/22 05:28:56;;;;;;;9.07;1.48;;;19.70;47.30;;;;;;5062273;28;20036;-65
2022/02/22 05:31:25;;;;;;;4.85;1.10;;;19.70;47.30;;;;;;5051692;28;20052;-68
2022/02/22 05:33:53;;;;;;;11.75;2.10;;;19.70;47.90;;;;;;5068148;28;20060;-68
2022/02/22 05:36:21;;;;;;;7.65;2.17;;;19.70;47.30;;;;;;5069914;28;20791;-67
2022/02/22 05:38:48;;;;;;;5.75;1.42;;;19.70;47.30;;;;;;5065320;28;20043;-67
2022/02/22 05:41:17;;;;;;;4.72;1.10;;;19.70;47.30;;;;;;5061595;28;20120;-67
2022/02/22 05:43:46;;;;;;;7.13;1.23;;;19.70;47.40;;;;;;5062508;28;20040;-67
2022/02/22 05:46:13;;;;;;;5.25;2.25;;;19.70;47.30;;;;;;5067704;28;20041;-66
2022/02/22 05:48:41;;;;;;;8.48;1.75;;;19.70;47.30;;;;;;5069372;28;20127;-67
2022/02/22 05:51:09;;;;;;;5.10;1.35;;;19.70;47.30;;;;;;5063844;28;20047;-67
2022/02/22 05:53:36;;;;;;;8.30;1.38;;;19.70;47.30;;;;;;5062749;28;20032;-68
2022/02/22 05:56:04;;;;;;;4.82;1.67;;;19.70;47.30;;;;;;5059924;28;20041;-67
2022/02/22 05:58:31;;;;;;;10.60;1.75;;;19.70;47.30;;;;;;5068238;28;20048;-67
2022/02/22 06:00:59;;;;;;;11.05;0.93;;;19.80;47.30;;;;;;5069021;28;20156;-67
2022/02/22 06:03:26;;;;;;;5.15;0.77;;;19.70;47.20;;;;;;5069658;28;20040;-65
2022/02/22 06:05:53;;;;;;;9.77;0.90;;;19.80;47.20;;;;;;5066998;28;20036;-66
2022/02/22 06:08:21;;;;;;;7.47;2.17;;;19.80;47.20;;;;;;5067285;28;20074;-66
2022/02/22 06:10:49;;;;;;;7.13;1.83;;;19.70;47.20;;;;;;5049630;28;20043;-65
2022/02/22 06:13:17;;;;;;;7.03;1.27;;;19.70;47.10;;;;;;5062948;28;20856;-65
2022/02/22 06:15:45;;;;;;;7.75;0.73;;;19.80;47.20;;;;;;5069460;28;20036;-66
2022/02/22 06:18:12;;;;;;;6.45;1.88;;;19.70;47.20;;;;;;5068273;28;20052;-65
2022/02/22 06:20:42;;;;;;;9.30;1.65;;;19.70;47.20;;;;;;5068214;28;20120;-66
2022/02/22 06:23:09;;;;;;;11.73;1.67;;;19.70;47.10;;;;;;5067851;28;20127;-65
2022/02/22 06:25:38;;;;;;;5.65;1.35;;;19.70;47.20;;;;;;5067671;28;20181;-67
2022/02/22 06:28:05;;;;;;;8.43;1.33;;;19.80;47.20;;;;;;5068306;28;20509;-65
2022/02/22 06:30:32;;;;;;;7.20;0.70;;;19.70;47.10;;;;;;5069552;28;20415;-65
2022/02/22 06:32:59;;;;;;;10.57;2.92;;;19.70;47.20;;;;;;5067926;28;20056;-65
2022/02/22 06:35:27;;;;;;;11.05;1.30;;;19.70;47.10;;;;;;5067871;28;20032;-65
2022/02/22 06:37:54;;;;;;;6.07;1.00;;;19.70;47.10;;;;;;5067764;28;20497;-64
2022/02/22 06:40:21;;;;;;;7.40;1.55;;;19.70;47.00;;;;;;5066995;28;20043;-64
2022/02/22 06:42:49;;;;;;;5.28;1.67;;;19.70;47.00;;;;;;5069623;28;20047;-66
2022/02/22 06:45:17;;;;;;;8.30;1.38;;;19.70;47.10;;;;;;5067773;28;20044;-66
2022/02/22 06:47:44;;;;;;;7.05;1.77;;;19.70;47.00;;;;;;5067630;28;20063;-64
2022/02/22 06:50:13;;;;;;;8.43;2.50;;;19.70;47.00;;;;;;5067641;28;20945;-65
2022/02/22 06:52:40;;;;;;;5.20;1.23;;;19.70;47.00;;;;;;5062244;28;20040;-66
2022/02/22 06:55:09;;;;;;;6.35;0.90;;;19.70;47.00;;;;;;5067466;28;20409;-65
2022/02/22 06:57:36;;;;;;;5.63;0.55;;;19.80;47.10;;;;;;5068228;28;20068;-65
2022/02/22 07:00:09;;;;;;;12.40;1.80;;;19.70;47.00;;;;;;5067144;28;20029;-68
2022/02/22 07:02:38;;;;;;;8.75;1.52;;;19.70;47.00;;;;;;5048091;28;20048;-67
2022/02/22 07:05:06;;;;;;;9.52;1.40;;;19.70;47.10;;;;;;5067084;28;20048;-65
2022/02/22 07:07:33;;;;;;;6.32;1.42;;;19.70;47.10;;;;;;5067321;28;20123;-66
2022/02/22 07:10:00;;;;;;;7.85;1.48;;;19.70;47.10;;;;;;5066811;28;20127;-68
2022/02/22 07:12:28;;;;;;;9.30;2.17;;;19.70;47.20;;;;;;5068672;28;20064;-66
2022/02/22 07:14:55;;;;;;;5.28;1.05;;;19.70;47.20;;;;;;5064136;28;20058;-66
2022/02/22 07:17:23;;;;;;;11.00;1.63;;;19.70;47.20;;;;;;5066788;28;20642;-67
2022/02/22 07:19:51;;;;;;;10.57;1.52;;;19.70;47.20;;;;;;5063385;28;20413;-65
2022/02/22 07:22:19;;;;;;;8.07;1.30;;;19.70;47.20;;;;;;5065535;28;20513;-65
2022/02/22 07:24:46;;;;;;;9.40;1.48;;;19.70;47.20;;;;;;5065682;28;20036;-66
2022/02/22 07:27:13;;;;;;;13.07;1.20;;;19.70;47.20;;;;;;5047714;28;20095;-66
2022/02/22 07:29:40;;;;;;;14.40;1.60;;;19.70;47.20;;;;;;5066285;28;20051;-65
2022/02/22 07:32:09;;;;;;;9.10;1.10;;;19.80;47.40;;;;;;5065546;28;20041;-67
2022/02/22 07:34:38;;;;;;;13.00;1.88;;;19.80;47.70;;;;;;5066741;28;20044;-63
2022/02/22 07:37:05;;;;;;;7.63;1.55;;;19.80;47.80;;;;;;5067191;28;20464;-62
2022/02/22 07:39:32;;;;;;;18.77;2.25;;;19.80;47.90;;;;;;5065824;28;20045;-57
2022/02/22 07:41:59;;;;;;;14.07;1.00;;;19.80;48.10;;;;;;5066434;28;20032;-50
2022/02/22 07:44:26;;;;;;;10.25;1.17;;;19.80;48.10;;;;;;5066293;28;20044;-54
2022/02/22 07:46:54;;;;;;;10.27;1.65;;;19.80;47.50;;;;;;5065608;28;20044;-55
2022/02/22 07:49:22;;;;;;;12.35;2.78;;;19.80;47.50;;;;;;5062107;28;20037;-53
2022/02/22 07:51:51;;;;;;;7.75;2.67;;;19.80;47.30;;;;;;5065882;28;20421;-49
2022/02/22 07:54:18;;;;;;;7.07;1.40;;;19.90;47.10;;;;;;5066127;28;20072;-49
2022/02/22 07:56:45;;;;;;;8.68;1.55;;;20.00;46.90;;;;;;5066263;28;20056;-55
2022/02/22 07:59:12;;;;;;;9.38;1.95;;;20.20;46.70;;;;;;5054655;28;20047;-51
2022/02/22 08:01:40;;;;;;;7.00;2.28;;;20.30;46.40;;;;;;5078236;28;20052;-57
2022/02/22 08:04:07;;;;;;;8.38;1.67;;;20.50;46.10;;;;;;5078427;28;20139;-54
2022/02/22 08:06:34;;;;;;;10.18;2.33;;;20.70;45.90;;;;;;5075669;28;20037;-61
2022/02/22 08:09:02;;;;;;;7.57;1.38;;;20.90;45.60;;;;;;5080000;28;20405;-65
2022/02/22 08:11:31;;;;;;;7.47;1.17;;;21.10;45.20;;;;;;5077780;28;20123;-69
2022/02/22 08:13:59;;;;;;;10.10;1.48;;;21.20;44.80;;;;;;5078500;28;20116;-70
2022/02/22 08:16:27;;;;;;;11.40;2.53;;;21.40;44.40;;;;;;5068972;28;20040;-63
2022/02/22 08:18:55;;;;;;;5.80;1.80;;;21.60;44.10;;;;;;5076465;28;20043;-62
2022/02/22 08:21:22;;;;;;;10.20;2.00;;;21.70;43.70;;;;;;5076486;28;20040;-62
2022/02/22 08:23:51;;;;;;;9.75;1.73;;;21.90;43.40;;;;;;5076722;28;20048;-63
2022/02/22 08:26:20;;;;;;;4.82;1.27;;;22.10;43.10;;;;;;5073406;28;20028;-69
2022/02/22 08:28:48;;;;;;;7.70;1.55;;;22.20;42.80;;;;;;5074719;28;20040;-62
2022/02/22 08:31:15;;;;;;;8.13;1.50;;;22.30;42.50;;;;;;5065443;28;20048;-63
2022/02/22 08:33:42;;;;;;;9.88;1.45;;;22.40;42.20;;;;;;5067393;28;20087;-63
2022/02/22 08:36:11;;;;;;;10.77;2.03;;;22.50;42.00;;;;;;5065926;28;20125;-69
2022/02/22 08:38:38;;;;;;;12.48;2.35;;;22.60;41.80;;;;;;5064816;28;20059;-66
2022/02/22 08:41:06;;;;;;;9.45;1.13;;;22.70;41.60;;;;;;5061921;28;20063;-61
2022/02/22 08:43:35;;;;;;;7.32;1.67;;;22.80;41.50;;;;;;5065545;28;20095;-61
2022/02/22 08:46:03;;;;;;;7.50;1.80;;;22.90;41.20;;;;;;5065694;28;20481;-63
2022/02/22 08:48:30;;;;;;;6.55;1.60;;;22.90;40.90;;;;;;5066844;28;20048;-70
2022/02/22 08:50:57;;;;;;;12.63;2.92;;;23.10;40.80;;;;;;5057747;28;20044;-62
2022/02/22 08:53:24;;;;;;;9.60;1.35;;;23.10;40.60;;;;;;5062329;28;20041;-63
2022/02/22 08:55:52;;;;;;;7.55;1.95;;;23.20;40.50;;;;;;5065477;28;20036;-63
2022/02/22 08:58:19;;;;;;;13.05;2.28;;;23.20;40.30;;;;;;5063234;28;20082;-63
2022/02/22 09:00:48;;;;;;;6.90;1.05;;;23.30;40.20;;;;;;5065241;28;20052;-63
2022/02/22 09:03:15;;;;;;;7.18;2.03;;;23.30;40.00;;;;;;5047154;28;20051;-53
2022/02/22 09:05:43;;;;;;;6.93;1.15;;;23.30;39.90;;;;;;5064857;28;20128;-54
2022/02/22 09:08:10;;;;;;;9.63;1.00;;;23.40;40.10;;;;;;5046725;28;20048;-54
2022/02/22 09:10:39;;;;;;;11.80;1.33;;;23.40;40.00;;;;;;5065206;28;20058;-68
2022/02/22 09:13:06;;;;;;;4.88;1.58;;;23.50;40.60;;;;;;5065726;28;20043;-70
2022/02/22 09:15:33;;;;;;;7.55;1.85;;;23.50;40.00;;;;;;5063516;28;20040;-72
2022/02/22 09:18:03;;;;;;;13.35;2.13;;;23.60;40.10;;;;;;5060152;28;20129;-63
2022/02/22 09:20:31;;;;;;;11.82;1.33;;;23.60;40.00;;;;;;5062243;28;20131;-61
2022/02/22 09:22:58;;;;;;;3.17;0.63;;;23.70;40.00;;;;;;5064514;28;20036;-67
2022/02/22 09:25:32;;;;;;;10.15;2.25;;;23.70;39.90;;;;;;5064956;28;20110;-67
2022/02/22 09:28:00;;;;;;;7.28;1.85;;;23.80;39.80;;;;;;5065382;28;20139;-64
2022/02/22 09:30:31;;;;;;;7.22;1.90;;;23.80;39.80;;;;;;5065544;28;20135;-73
2022/02/22 09:32:58;;;;;;;9.60;1.52;;;23.90;39.70;;;;;;5064486;28;20075;-70
2022/02/22 09:35:27;;;;;;;5.10;1.05;;;23.90;39.50;;;;;;5064575;28;20036;-63
2022/02/22 09:37:54;;;;;;;7.60;1.13;;;24.00;39.70;;;;;;5064776;28;20047;-62
2022/02/22 09:40:22;;;;;;;8.95;2.20;;;24.10;39.30;;;;;;5064582;28;20041;-68
2022/02/22 09:42:49;;;;;;;5.30;1.17;;;24.20;39.30;;;;;;5064208;28;20048;-64
2022/02/22 09:45:17;;;;;;;11.25;1.33;;;24.30;39.10;;;;;;5063606;28;20051;-66
2022/02/22 09:47:45;;;;;;;6.60;1.42;;;24.30;39.00;;;;;;5063913;28;20084;-65
2022/02/22 09:50:15;;;;;;;6.05;1.35;;;24.40;39.00;;;;;;5064731;28;20040;-59
2022/02/22 09:52:44;;;;;;;7.70;1.30;;;24.50;38.80;;;;;;5064527;28;20118;-66
2022/02/22 09:55:12;;;;;;;7.82;2.05;;;24.50;38.60;;;;;;5065793;28;20049;-62
2022/02/22 09:57:40;;;;;;;8.30;1.85;;;24.60;38.50;;;;;;5070476;28;20040;-61
2022/02/22 10:00:18;;;;;;;7.68;1.42;;;24.60;38.40;;;;;;5067067;28;20033;-58
2022/02/22 10:02:46;;;;;;;12.75;1.85;;;24.70;38.40;;;;;;5076628;28;20043;-63
2022/02/22 10:05:15;;;;;;;4.70;1.55;;;24.70;38.40;;;;;;5073537;28;20098;-62
2022/02/22 10:07:54;;;;;;;11.80;3.13;;;24.80;38.40;;;;;;5078516;28;20051;-62
2022/02/22 10:10:34;;;;;;;9.60;1.52;;;24.80;38.30;;;;;;5073822;28;21453;-62
2022/02/22 10:13:02;;;;;;;6.80;1.88;;;24.80;38.30;;;;;;5076707;28;20904;-63
2022/02/22 10:15:29;;;;;;;11.30;1.40;;;24.80;38.30;;;;;;5076939;28;20043;-61
2022/02/22 10:17:57;;;;;;;7.15;1.88;;;24.90;38.30;;;;;;5075917;28;20041;-61
2022/02/22 10:20:26;;;;;;;7.60;2.20;;;24.90;38.30;;;;;;5072831;28;20041;-66
2022/02/22 10:22:57;;;;;;;7.00;1.30;;;24.90;38.20;;;;;;5081298;28;20048;-66
2022/02/22 10:25:25;;;;;;;7.25;2.10;;;24.90;38.10;;;;;;5080356;28;20416;-66
2022/02/22 10:27:55;;;;;;;7.75;2.03;;;24.90;38.00;;;;;;5088536;28;20044;-65
2022/02/22 10:30:40;;;;;;;5.65;1.05;;;25.00;38.00;;;;;;5079025;28;20454;-64
2022/02/22 10:33:13;;;;;;;5.82;1.25;;;25.00;37.90;;;;;;5075909;28;20051;-67
2022/02/22 10:35:41;;;;;;;3.63;1.15;;;25.00;37.90;;;;;;5080827;28;20039;-61
2022/02/22 10:38:17;;;;;;;3.33;0.80;;;25.10;37.90;;;;;;5077135;28;20044;-61
2022/02/22 10:40:56;;;;;;;4.55;1.25;;;25.20;37.80;;;;;;5079616;28;20035;-66
2022/02/22 10:43:25;;;;;;;6.57;1.58;;;25.30;37.90;;;;;;5068783;28;20071;-58
2022/02/22 10:45:56;;;;;;;4.95;1.20;;;25.30;37.70;;;;;;5070453;28;20524;-60
2022/02/22 10:48:38;;;;;;;7.15;1.27;;;25.30;37.70;;;;;;5069230;28;20056;-61
2022/02/22 10:51:09;;;;;;;7.90;1.42;;;25.40;37.70;;;;;;5070192;28;20134;-60
2022/02/22 10:53:41;;;;;;;10.52;1.85;;;25.30;37.60;;;;;;5069742;28;20612;-55
2022/02/22 10:56:11;;;;;;;8.52;1.85;;;25.40;37.70;;;;;;5067289;28;20040;-51
2022/02/22 10:58:40;;;;;;;3.92;0.70;;;25.40;37.80;;;;;;5064776;28;20060;-55
2022/02/22 11:01:10;;;;;;;11.45;1.23;;;25.40;37.90;;;;;;5066463;28;20056;-51
2022/02/22 11:03:38;;;;;;;5.55;1.00;;;25.40;37.90;;;;;;5047595;28;20048;-51
2022/02/22 11:06:07;;;;;;;3.35;0.65;;;25.40;38.00;;;;;;5066623;28;20821;-46
2022/02/22 11:08:36;;;;;;;5.68;1.50;;;25.40;38.10;;;;;;5064787;28;20040;-44
2022/02/22 11:11:07;;;;;;;3.20;1.23;;;25.40;38.10;;;;;;5064917;28;20123;-61
2022/02/22 11:13:35;;;;;;;5.82;1.00;;;25.40;38.10;;;;;;5049234;28;20143;-62
2022/02/22 11:16:10;;;;;;;2.88;0.63;;;25.40;38.00;;;;;;5047598;28;20546;-62
2022/02/22 11:18:49;;;;;;;6.25;1.38;;;25.40;38.00;;;;;;5064526;28;20382;-64
2022/02/22 11:21:17;;;;;;;2.90;0.40;;;25.50;38.10;;;;;;5063857;28;20106;-57
2022/02/22 11:23:46;;;;;;;3.65;1.20;;;25.40;38.30;;;;;;5067084;28;20568;-53
2022/02/22 11:26:17;;;;;;;7.03;1.13;;;25.50;38.50;;;;;;5066858;28;20056;-61
2022/02/22 11:28:48;;;;;;;3.47;0.95;;;25.50;38.60;;;;;;5066903;28;20047;-58
2022/02/22 11:31:19;;;;;;;3.05;0.43;;;25.50;38.60;;;;;;5067993;28;20102;-58
2022/02/22 11:33:50;;;;;;;4.38;0.98;;;25.50;38.70;;;;;;5068513;28;20119;-58
2022/02/22 11:36:36;;;;;;;1.80;0.80;;;25.50;38.80;;;;;;5066229;28;20051;-55
2022/02/22 11:39:06;;;;;;;5.80;0.85;;;25.50;38.80;;;;;;5066359;28;20379;-61
2022/02/22 11:41:43;;;;;;;3.92;1.25;;;25.60;38.90;;;;;;5064070;28;20052;-59
2022/02/22 11:44:16;;;;;;;2.38;0.50;;;25.60;38.90;;;;;;5066320;28;20052;-61
2022/02/22 11:46:47;;;;;;;2.47;0.60;;;25.60;38.80;;;;;;5048983;28;20045;-59
2022/02/22 11:49:23;;;;;;;4.32;1.55;;;25.70;38.80;;;;;;5066850;28;20048;-57
2022/02/22 11:51:53;;;;;;;1.95;0.50;;;25.70;38.70;;;;;;5065282;28;20048;-58
2022/02/22 11:54:22;;;;;;;6.43;0.75;;;25.80;38.70;;;;;;5066546;28;20135;-59
2022/02/22 11:57:03;;;;;;;2.58;0.43;;;25.80;38.60;;;;;;5047955;28;20033;-58
2022/02/22 11:59:33;;;;;;;2.15;0.57;;;25.90;38.60;;;;;;5066183;28;20084;-61
2022/02/22 12:02:02;;;;;;;3.45;0.70;;;25.90;38.50;;;;;;5065380;28;20045;-60
2022/02/22 12:04:31;;;;;;;2.67;0.50;;;25.90;38.50;;;;;;5059632;28;20413;-59
2022/02/22 12:07:01;;;;;;;3.17;0.40;;;25.90;38.40;;;;;;5060007;28;20048;-62
2022/02/22 12:09:37;;;;;;;1.08;0.35;;;26.00;38.40;;;;;;5064176;28;20045;-62
2022/02/22 12:12:08;;;;;;;2.05;0.68;;;26.00;38.40;;;;;;5064610;28;20036;-62
2022/02/22 12:14:37;;;;;;;3.42;0.25;;;26.10;38.50;;;;;;5047241;28;20131;-72
2022/02/22 12:17:07;;;;;;;2.42;0.88;;;26.10;38.50;;;;;;5066953;28;20182;-62
2022/02/22 12:19:34;;;;;;;2.50;0.25;;;26.10;38.40;;;;;;5066870;28;20044;-62
2022/02/22 12:22:03;;;;;;;2.58;0.60;;;26.20;38.50;;;;;;5066400;28;20044;-63
2022/02/22 12:24:30;;;;;;;2.47;0.40;;;26.20;38.50;;;;;;5066893;28;20075;-63
2022/02/22 12:26:57;;;;;;;2.95;0.32;;;26.30;38.50;;;;;;5065876;28;20040;-63
2022/02/22 12:29:29;;;;;;;7.97;0.40;;;26.30;38.50;;;;;;5043892;28;20124;-63
2022/02/22 12:32:01;;;;;;;5.05;0.35;;;26.30;38.50;;;;;;5065658;28;20052;-63
2022/02/22 12:34:30;;;;;;;1.60;0.63;;;26.40;38.50;;;;;;5064014;28;20055;-64
2022/02/22 12:37:00;;;;;;;1.48;0.32;;;26.40;38.50;;;;;;5066378;28;20044;-62
2022/02/22 12:39:30;;;;;;;2.15;0.77;;;26.50;38.40;;;;;;5063673;28;20063;-65
2022/02/22 12:41:58;;;;;;;2.25;0.30;;;26.60;38.40;;;;;;5061097;28;20043;-64
2022/02/22 12:44:28;;;;;;;0.95;0.17;;;26.60;38.40;;;;;;5063975;28;20041;-63
2022/02/22 12:46:58;;;;;;;1.60;0.70;;;26.70;38.50;;;;;;5061464;28;20087;-64
2022/02/22 12:49:26;;;;;;;0.63;0.40;;;26.70;38.30;;;;;;5059438;28;20543;-60
2022/02/22 12:52:01;;;;;;;1.98;0.28;;;26.80;37.90;;;;;;5063993;28;20090;-59